createdAt,value
2023-04-10T00:00:12.235Z,32.08
2023-04-10T00:04:14.641Z,34.80
2023-04-10T00:08:16.331Z,37.88
2023-04-10T00:12:18.145Z,29.98
2023-04-10T00:16:20.094Z,36.30
2023-04-10T00:20:22.969Z,37.13
2023-04-10T00:24:24.515Z,38.90
2023-04-10T00:28:25.996Z,32.22
2023-04-10T00:32:27.461Z,34.83
2023-04-10T00:36:28.921Z,41.15
2023-04-10T00:40:30.503Z,35.35
2023-04-10T00:44:31.996Z,34.70
2023-04-10T00:48:34.447Z,34.53
2023-04-10T00:52:36.150Z,31.63
2023-04-10T00:56:37.815Z,34.65
2023-04-10T01:00:39.324Z,38.28
2023-04-10T01:04:42.062Z,39.33
2023-04-10T01:09:00.760Z,44.92
2023-04-10T01:13:16.339Z,47.28
2023-04-10T01:17:30.601Z,38.58
2023-04-10T01:21:36.472Z,41.88
2023-04-10T01:25:56.559Z,37.47
2023-04-10T01:30:02.618Z,39.33
2023-04-10T01:34:16.275Z,32.42
2023-04-10T01:38:20.670Z,38.17
2023-04-10T01:42:23.883Z,31.33
2023-04-10T01:46:27.360Z,35.42
2023-04-10T01:50:30.538Z,35.60
2023-04-10T01:54:33.449Z,39.75
2023-04-10T01:58:35.910Z,40.45
2023-04-10T02:02:37.698Z,38.90
2023-04-10T02:06:56.378Z,45.42
2023-04-10T02:11:26.602Z,37.75
2023-04-10T02:15:32.461Z,38.97
2023-04-10T02:19:35.477Z,39.85
2023-04-10T02:23:37.280Z,44.80
2023-04-10T02:27:39.288Z,38.95
2023-04-10T02:31:44.524Z,39.75
2023-04-10T02:35:46.037Z,44.80
2023-04-10T02:39:47.528Z,40.70
2023-04-10T02:43:48.967Z,38.70
2023-04-10T02:47:50.494Z,44.83
2023-04-10T02:51:51.948Z,38.72
2023-04-10T02:55:54.725Z,40.00
2023-04-10T02:59:56.177Z,47.30
2023-04-10T03:03:58.439Z,39.65
2023-04-10T03:08:00.193Z,41.05
2023-04-10T03:12:02.333Z,38.90
2023-04-10T03:16:03.911Z,38.90
2023-04-10T03:20:05.923Z,37.42
2023-04-10T03:24:07.374Z,36.63
2023-04-10T03:28:09.127Z,38.97
2023-04-10T03:32:10.566Z,35.85
2023-04-10T03:36:12.499Z,38.13
2023-04-10T03:40:13.996Z,35.75
2023-04-10T03:44:15.619Z,36.67
2023-04-10T03:48:17.865Z,37.45
2023-04-10T03:52:19.271Z,42.90
2023-04-10T03:56:20.684Z,35.10
2023-04-10T04:00:22.210Z,36.00
2023-04-10T04:04:23.834Z,32.72
2023-04-10T04:08:28.330Z,34.42
2023-04-10T04:12:29.826Z,41.08
2023-04-10T04:16:31.311Z,49.13
2023-04-10T04:20:32.854Z,55.38
2023-04-10T04:24:36.579Z,42.60
2023-04-10T04:28:38.021Z,43.85
2023-04-10T04:32:42.598Z,43.50
2023-04-10T04:36:44.202Z,36.53
2023-04-10T04:40:46.192Z,51.53
2023-04-10T04:44:49.514Z,44.22
2023-04-10T04:48:50.966Z,39.83
2023-04-10T04:52:52.395Z,43.30
2023-04-10T04:56:53.905Z,37.03
2023-04-10T05:00:55.484Z,42.55
2023-04-10T05:04:56.962Z,41.65
2023-04-10T05:08:58.397Z,39.03
2023-04-10T05:12:59.799Z,41.00
2023-04-10T05:17:03.362Z,37.17
2023-04-10T05:21:05.442Z,42.88
2023-04-10T05:25:07.369Z,40.90
2023-04-10T05:29:08.794Z,40.60
2023-04-10T05:33:10.345Z,45.45
2023-04-10T05:37:13.003Z,48.38
2023-04-10T05:41:14.610Z,41.97
2023-04-10T05:45:16.175Z,44.55
2023-04-10T05:49:17.606Z,36.95
2023-04-10T05:53:20.219Z,37.95
2023-04-10T05:57:21.718Z,30.92
2023-04-10T06:01:23.193Z,32.70
2023-04-10T06:05:24.718Z,31.48
2023-04-10T06:09:26.244Z,34.30
2023-04-10T06:13:27.865Z,40.75
2023-04-10T06:17:29.798Z,35.42
2023-04-10T06:21:31.765Z,35.53
2023-04-10T06:25:33.349Z,35.85
2023-04-10T06:29:34.909Z,31.92
2023-04-10T06:33:39.246Z,29.98
2023-04-10T06:37:40.727Z,34.03
2023-04-10T06:41:42.201Z,38.63
2023-04-10T06:45:43.719Z,36.13
2023-04-10T06:49:45.275Z,42.50
2023-04-10T06:53:47.120Z,47.28
2023-04-10T06:57:48.555Z,38.78
2023-04-10T07:01:49.992Z,45.85
2023-04-10T07:05:51.532Z,42.72
2023-04-10T07:09:52.989Z,45.80
2023-04-10T07:13:58.552Z,42.05
2023-04-10T07:18:00.121Z,47.78
2023-04-10T07:22:01.675Z,53.40
2023-04-10T07:26:03.090Z,50.95
2023-04-10T07:30:05.260Z,46.25
2023-04-10T07:34:07.063Z,48.22
2023-04-10T07:38:08.647Z,45.75
2023-04-10T07:42:11.336Z,50.00
2023-04-10T07:46:12.883Z,41.88
2023-04-10T07:50:14.428Z,50.75
2023-04-10T07:54:15.920Z,47.47
2023-04-10T07:58:17.419Z,45.03
2023-04-10T08:02:18.962Z,40.85
2023-04-10T08:06:20.883Z,36.95
2023-04-10T08:10:22.581Z,36.25
2023-04-10T08:14:24.085Z,37.72
2023-04-10T08:18:25.624Z,32.38
2023-04-10T08:22:27.069Z,38.28
2023-04-10T08:26:29.187Z,33.13
2023-04-10T08:30:30.829Z,33.50
2023-04-10T08:34:32.296Z,33.38
2023-04-10T08:38:34.052Z,30.55
2023-04-10T08:42:36.375Z,28.35
2023-04-10T08:46:42.978Z,33.20
2023-04-10T08:50:46.119Z,32.10
2023-04-10T08:54:50.740Z,28.42
2023-04-10T08:58:53.005Z,27.25
2023-04-10T09:02:58.193Z,40.28
2023-04-10T09:07:00.614Z,26.65
2023-04-10T09:11:02.327Z,29.52
2023-04-10T09:15:04.103Z,32.92
2023-04-10T09:19:06.585Z,31.25
2023-04-10T09:23:22.296Z,29.83
2023-04-10T09:27:35.496Z,29.90
2023-04-10T09:31:38.943Z,24.75
2023-04-10T09:35:40.976Z,21.88
2023-04-10T09:39:43.682Z,26.30
2023-04-10T09:43:46.193Z,27.45
2023-04-10T09:48:05.792Z,19.85
2023-04-10T09:52:20.310Z,20.15
2023-04-10T09:56:23.021Z,18.27
2023-04-10T10:00:26.584Z,19.80
2023-04-10T10:04:28.882Z,19.92
2023-04-10T10:08:33.146Z,19.30
2023-04-10T10:12:43.999Z,17.20
2023-04-10T10:16:56.644Z,16.98
2023-04-10T10:20:59.197Z,16.65
2023-04-10T10:25:02.379Z,15.18
2023-04-10T10:29:06.924Z,18.80
2023-04-10T10:33:10.243Z,15.65
2023-04-10T10:37:12.778Z,16.27
2023-04-10T10:41:21.215Z,12.70
2023-04-10T10:45:34.658Z,13.13
2023-04-10T10:49:51.962Z,13.13
2023-04-10T10:53:53.454Z,13.00
2023-04-10T10:57:56.201Z,13.32
2023-04-10T11:02:17.792Z,14.40
2023-04-10T11:06:21.467Z,16.88
2023-04-10T11:11:00.494Z,12.23
2023-04-10T11:15:04.942Z,13.70
2023-04-10T11:19:14.281Z,11.77
2023-04-10T11:23:20.369Z,13.15
2023-04-10T11:27:51.564Z,12.13
2023-04-10T11:32:01.545Z,11.43
2023-04-10T11:36:03.675Z,14.88
2023-04-10T11:40:06.318Z,13.00
2023-04-10T11:44:10.774Z,13.60
2023-04-10T11:48:12.290Z,12.88
2023-04-10T11:52:24.206Z,12.40
2023-04-10T11:56:25.649Z,14.25
2023-04-10T12:00:27.060Z,11.45
2023-04-10T12:04:28.762Z,12.98
2023-04-10T12:08:31.684Z,14.30
2023-04-10T12:12:37.053Z,15.00
2023-04-10T12:16:38.700Z,11.55
2023-04-10T12:20:40.411Z,10.77
2023-04-10T12:24:48.797Z,11.27
2023-04-10T12:28:55.052Z,11.57
2023-04-10T12:32:57.513Z,10.52
2023-04-10T12:36:59.019Z,12.23
2023-04-10T12:41:01.474Z,10.70
2023-04-10T12:45:03.413Z,10.15
2023-04-10T12:49:16.340Z,10.50
2023-04-10T12:53:18.006Z,8.35
2023-04-10T12:57:28.353Z,12.77
2023-04-10T13:01:29.806Z,11.40
2023-04-10T13:05:31.363Z,11.52
2023-04-10T13:09:32.821Z,8.02
2023-04-10T13:13:34.259Z,9.85
2023-04-10T13:17:35.880Z,8.10
2023-04-10T13:21:37.454Z,11.98
2023-04-10T13:25:40.243Z,11.05
2023-04-10T13:29:42.939Z,8.27
2023-04-10T13:33:48.718Z,9.40
2023-04-10T13:37:53.087Z,9.80
2023-04-10T13:41:54.592Z,7.95
2023-04-10T13:45:56.098Z,8.70
2023-04-10T13:49:57.534Z,9.63
2023-04-10T13:53:59.080Z,8.20
2023-04-10T13:58:00.545Z,8.80
2023-04-10T14:02:02.177Z,8.57
2023-04-10T14:06:03.905Z,9.88
2023-04-10T14:10:06.928Z,9.90
2023-04-10T14:14:08.678Z,9.90
2023-04-10T14:18:10.284Z,8.05
2023-04-10T14:22:12.536Z,10.60
2023-04-10T14:26:14.018Z,7.10
2023-04-10T14:30:15.518Z,9.70
2023-04-10T14:34:17.059Z,10.02
2023-04-10T14:38:18.580Z,7.43
2023-04-10T14:42:20.122Z,7.47
2023-04-10T14:46:21.580Z,9.15
2023-04-10T14:50:23.039Z,9.63
2023-04-10T14:54:24.582Z,8.75
2023-04-10T14:58:26.083Z,12.15
2023-04-10T15:02:28.206Z,8.25
2023-04-10T15:06:32.311Z,10.90
2023-04-10T15:10:33.734Z,8.80
2023-04-10T15:14:35.246Z,8.85
2023-04-10T15:18:36.682Z,10.43
2023-04-10T15:22:38.214Z,9.93
2023-04-10T15:26:46.291Z,9.88
2023-04-10T15:30:49.713Z,9.25
2023-04-10T15:34:51.237Z,9.15
2023-04-10T15:38:52.706Z,10.23
2023-04-10T15:42:54.141Z,8.23
2023-04-10T15:46:55.600Z,8.43
2023-04-10T15:50:57.007Z,7.63
2023-04-10T15:54:58.550Z,7.65
2023-04-10T15:59:00.162Z,7.50
2023-04-10T16:03:01.828Z,9.20
2023-04-10T16:07:03.448Z,9.35
2023-04-10T16:11:05.372Z,9.63
2023-04-10T16:15:08.360Z,11.27
2023-04-10T16:19:10.067Z,7.20
2023-04-10T16:23:11.616Z,7.95
2023-04-10T16:27:13.097Z,10.07
2023-04-10T16:31:14.591Z,9.25
2023-04-10T16:35:18.062Z,8.70
2023-04-10T16:39:19.724Z,8.23
2023-04-10T16:43:23.164Z,8.73
2023-04-10T16:47:25.503Z,10.88
2023-04-10T16:51:27.378Z,9.20
2023-04-10T16:55:28.916Z,8.88
2023-04-10T16:59:30.476Z,9.90
2023-04-10T17:03:33.552Z,10.10
2023-04-10T17:07:35.051Z,9.10
2023-04-10T17:11:36.539Z,7.65
2023-04-10T17:15:38.010Z,7.70
2023-04-10T17:19:39.580Z,7.50
2023-04-10T17:23:41.495Z,6.85
2023-04-10T17:27:42.914Z,8.95
2023-04-10T17:31:44.571Z,8.20
2023-04-10T17:35:46.113Z,7.05
2023-04-10T17:39:47.607Z,8.25
2023-04-10T17:43:49.206Z,7.22
2023-04-10T17:47:50.692Z,8.25
2023-04-10T17:51:52.271Z,8.13
2023-04-10T17:55:53.669Z,11.27
2023-04-10T17:59:55.232Z,9.57
2023-04-10T18:04:02.696Z,8.38
2023-04-10T18:08:04.434Z,8.48
2023-04-10T18:12:05.961Z,8.20
2023-04-10T18:16:08.250Z,7.50
2023-04-10T18:20:10.420Z,9.63
2023-04-10T18:24:12.125Z,7.57
2023-04-10T18:28:15.552Z,8.52
2023-04-10T18:32:17.988Z,9.82
2023-04-10T18:36:21.519Z,10.20
2023-04-10T18:40:23.969Z,8.35
2023-04-10T18:44:25.464Z,8.07
2023-04-10T18:48:27.004Z,9.00
2023-04-10T18:52:28.478Z,9.48
2023-04-10T18:56:30.491Z,11.95
2023-04-10T19:00:33.956Z,10.18
2023-04-10T19:04:35.599Z,9.05
2023-04-10T19:08:37.367Z,8.00
2023-04-10T19:12:40.338Z,9.13
2023-04-10T19:16:41.973Z,10.23
2023-04-10T19:20:49.082Z,8.18
2023-04-10T19:24:54.385Z,7.57
2023-04-10T19:28:56.148Z,10.40
2023-04-10T19:32:57.987Z,8.82
2023-04-10T19:36:59.569Z,10.75
2023-04-10T19:41:01.111Z,9.52
2023-04-10T19:45:04.477Z,8.38
2023-04-10T19:49:06.063Z,8.32
2023-04-10T19:53:07.734Z,8.63
2023-04-10T19:57:09.313Z,7.90
2023-04-10T20:01:11.878Z,9.43
2023-04-10T20:05:13.651Z,9.23
2023-04-10T20:09:16.137Z,8.90
2023-04-10T20:13:17.541Z,7.47
2023-04-10T20:17:19.087Z,8.45
2023-04-10T20:21:21.896Z,7.65
2023-04-10T20:25:23.327Z,8.95
2023-04-10T20:29:24.829Z,7.78
2023-04-10T20:33:26.318Z,10.95
2023-04-10T20:37:27.830Z,8.95
2023-04-10T20:41:29.348Z,6.50
2023-04-10T20:45:31.035Z,8.73
2023-04-10T20:49:32.706Z,8.60
2023-04-10T20:53:34.153Z,8.65
2023-04-10T20:57:35.672Z,7.60
2023-04-10T21:01:37.343Z,7.28
2023-04-10T21:05:41.423Z,8.32
2023-04-10T21:09:42.977Z,9.35
2023-04-10T21:13:44.394Z,9.52
2023-04-10T21:17:45.844Z,9.00
2023-04-10T21:21:47.313Z,9.27
2023-04-10T21:25:52.655Z,7.22
2023-04-10T21:29:54.106Z,9.30
2023-04-10T21:33:55.637Z,8.73
2023-04-10T21:38:01.805Z,9.77
2023-04-10T21:42:03.614Z,9.90
2023-04-10T21:46:06.110Z,8.43
2023-04-10T21:50:08.121Z,15.48
2023-04-10T21:54:09.561Z,8.10
2023-04-10T21:58:11.029Z,12.27
2023-04-10T22:02:13.145Z,7.57
2023-04-10T22:06:14.865Z,8.77
2023-04-10T22:10:16.490Z,9.65
2023-04-10T22:14:20.080Z,8.40
2023-04-10T22:18:22.853Z,8.82
2023-04-10T22:22:24.383Z,7.22
2023-04-10T22:26:26.057Z,11.63
2023-04-10T22:30:27.590Z,9.50
2023-04-10T22:34:29.035Z,8.18
2023-04-10T22:38:30.790Z,7.82
2023-04-10T22:42:32.207Z,9.10
2023-04-10T22:46:33.993Z,13.93
2023-04-10T22:50:35.506Z,9.57
2023-04-10T22:54:36.969Z,9.73
2023-04-10T22:58:39.705Z,8.93
2023-04-10T23:02:41.341Z,8.32
2023-04-10T23:06:42.894Z,9.30
2023-04-10T23:10:44.346Z,8.65
2023-04-10T23:14:45.786Z,8.93
2023-04-10T23:18:47.177Z,7.05
2023-04-10T23:22:48.650Z,8.23
2023-04-10T23:26:50.132Z,9.95
2023-04-10T23:30:51.629Z,9.30
2023-04-10T23:34:53.056Z,9.35
2023-04-10T23:38:55.019Z,8.10
2023-04-10T23:42:56.767Z,10.27
2023-04-10T23:46:58.258Z,8.98
2023-04-10T23:51:04.561Z,8.32
2023-04-10T23:55:06.404Z,6.72
2023-04-10T23:59:07.881Z,10.52
